createdAt,value
2017-10-26T00:01:58.644Z,11.60
2017-10-26T00:04:25.919Z,12.07
2017-10-26T00:06:53.106Z,12.23
2017-10-26T00:09:19.649Z,12.10
2017-10-26T00:11:46.812Z,12.00
2017-10-26T00:14:14.010Z,12.20
2017-10-26T00:16:40.786Z,11.43
2017-10-26T00:19:07.316Z,12.30
2017-10-26T00:21:33.739Z,11.23
2017-10-26T00:24:00.170Z,11.68
2017-10-26T00:26:26.686Z,11.57
2017-10-26T00:28:53.241Z,11.57
2017-10-26T00:31:20.439Z,12.40
2017-10-26T00:33:46.972Z,12.00
2017-10-26T00:36:13.403Z,12.23
2017-10-26T00:38:39.831Z,11.48
2017-10-26T00:41:06.263Z,11.75
2017-10-26T00:43:32.694Z,12.23
2017-10-26T00:45:59.883Z,12.02
2017-10-26T00:48:26.426Z,11.60
2017-10-26T00:50:53.700Z,12.70
2017-10-26T00:53:20.262Z,11.25
2017-10-26T00:55:46.696Z,11.80
2017-10-26T00:58:13.941Z,12.00
2017-10-26T01:00:40.548Z,12.30
2017-10-26T01:03:07.810Z,11.93
2017-10-26T01:05:35.098Z,12.52
2017-10-26T01:08:02.372Z,12.53
2017-10-26T01:10:29.668Z,12.30
2017-10-26T01:12:56.210Z,12.90
2017-10-26T01:15:22.733Z,12.18
2017-10-26T01:17:49.320Z,11.60
2017-10-26T01:20:16.697Z,12.02
2017-10-26T01:22:43.974Z,12.55
2017-10-26T01:25:10.639Z,12.23
2017-10-26T01:27:37.193Z,11.70
2017-10-26T01:30:03.749Z,12.15
2017-10-26T01:32:31.025Z,12.55
2017-10-26T01:34:58.291Z,13.07
2017-10-26T01:37:25.572Z,12.20
2017-10-26T01:39:52.830Z,13.02
2017-10-26T01:42:19.326Z,13.02
2017-10-26T01:44:45.810Z,12.60
2017-10-26T01:47:12.338Z,12.57
2017-10-26T01:49:38.876Z,13.23
2017-10-26T01:52:06.688Z,12.77
2017-10-26T01:54:33.340Z,12.88
2017-10-26T01:56:59.916Z,13.68
2017-10-26T01:59:26.472Z,13.65
2017-10-26T02:01:53.043Z,13.07
2017-10-26T02:04:19.584Z,13.85
2017-10-26T02:06:46.116Z,13.50
2017-10-26T02:09:12.657Z,13.02
2017-10-26T02:11:39.970Z,14.02
2017-10-26T02:14:06.515Z,14.13
2017-10-26T02:16:33.066Z,14.20
2017-10-26T02:18:59.731Z,13.80
2017-10-26T02:21:26.285Z,14.20
2017-10-26T02:23:52.805Z,14.00
2017-10-26T02:26:19.401Z,14.18
2017-10-26T02:28:59.052Z,14.63
2017-10-26T02:31:34.507Z,13.75
2017-10-26T02:34:02.089Z,14.77
2017-10-26T02:36:28.647Z,15.10
2017-10-26T02:38:55.308Z,15.45
2017-10-26T02:41:22.584Z,16.00
2017-10-26T02:43:49.140Z,16.08
2017-10-26T02:46:15.634Z,16.60
2017-10-26T02:48:42.083Z,16.50
2017-10-26T02:51:08.530Z,16.70
2017-10-26T02:53:35.078Z,16.00
2017-10-26T02:56:01.497Z,16.87
2017-10-26T02:58:28.900Z,16.77
2017-10-26T03:00:56.182Z,17.10
2017-10-26T03:03:22.830Z,17.60
2017-10-26T03:05:50.315Z,17.30
2017-10-26T03:08:17.551Z,17.33
2017-10-26T03:10:44.149Z,17.43
2017-10-26T03:13:10.705Z,17.75
2017-10-26T03:15:38.090Z,16.45
2017-10-26T03:18:04.651Z,18.90
2017-10-26T03:20:31.199Z,17.83
2017-10-26T03:22:58.582Z,17.48
2017-10-26T03:25:25.201Z,18.10
2017-10-26T03:27:51.695Z,16.73
2017-10-26T03:30:18.788Z,18.20
2017-10-26T03:32:45.218Z,17.00
2017-10-26T03:35:11.633Z,18.05
2017-10-26T03:37:38.132Z,18.05
2017-10-26T03:40:05.405Z,18.05
2017-10-26T03:42:32.725Z,18.15
2017-10-26T03:44:59.182Z,17.77
2017-10-26T03:47:25.650Z,18.07
2017-10-26T03:49:52.130Z,18.57
2017-10-26T03:52:19.424Z,18.97
2017-10-26T03:54:46.700Z,18.15
2017-10-26T03:57:13.890Z,18.80
2017-10-26T03:59:40.432Z,19.00
2017-10-26T04:02:07.704Z,17.17
2017-10-26T04:04:34.160Z,17.77
2017-10-26T04:07:01.538Z,18.07
2017-10-26T04:09:28.732Z,17.73
2017-10-26T04:11:55.268Z,18.23
2017-10-26T04:14:21.927Z,17.98
2017-10-26T04:16:49.125Z,18.00
2017-10-26T04:19:15.571Z,17.83
2017-10-26T04:21:42.122Z,18.15
2017-10-26T04:24:08.651Z,18.02
2017-10-26T04:26:35.932Z,17.80
2017-10-26T04:29:03.142Z,18.65
2017-10-26T04:31:29.785Z,18.62
2017-10-26T04:33:56.309Z,19.80
2017-10-26T04:36:23.000Z,19.12
2017-10-26T04:38:50.376Z,18.70
2017-10-26T04:41:17.673Z,19.50
2017-10-26T04:43:44.157Z,19.80
2017-10-26T04:46:10.768Z,20.00
2017-10-26T04:48:38.044Z,20.23
2017-10-26T04:51:05.118Z,20.20
2017-10-26T04:53:31.672Z,19.42
2017-10-26T04:55:58.893Z,20.00
2017-10-26T04:58:25.402Z,19.73
2017-10-26T05:00:51.870Z,20.27
2017-10-26T05:03:18.418Z,20.40
2017-10-26T05:05:44.982Z,20.30
2017-10-26T05:08:11.474Z,20.80
2017-10-26T05:10:37.944Z,20.80
2017-10-26T05:13:04.389Z,21.13
2017-10-26T05:15:30.842Z,21.20
2017-10-26T05:17:57.335Z,21.27
2017-10-26T05:20:23.761Z,21.55
2017-10-26T05:22:50.221Z,20.85
2017-10-26T05:25:16.729Z,20.90
2017-10-26T05:27:44.003Z,21.67
2017-10-26T05:30:11.277Z,21.30
2017-10-26T05:32:38.438Z,20.10
2017-10-26T05:35:05.787Z,20.08
2017-10-26T05:37:32.295Z,20.52
2017-10-26T05:39:58.840Z,20.85
2017-10-26T05:42:25.344Z,21.25
2017-10-26T05:44:51.860Z,20.00
2017-10-26T05:47:18.418Z,20.50
2017-10-26T05:49:44.971Z,21.23
2017-10-26T05:52:12.240Z,20.30
2017-10-26T05:54:39.523Z,20.15
2017-10-26T05:57:06.079Z,20.40
2017-10-26T05:59:33.353Z,20.37
2017-10-26T06:01:59.914Z,19.17
2017-10-26T06:04:26.471Z,20.20
2017-10-26T06:06:53.763Z,20.48
2017-10-26T06:09:20.201Z,19.87
2017-10-26T06:11:47.491Z,20.80
2017-10-26T06:14:14.035Z,21.15
2017-10-26T06:16:41.219Z,20.40
2017-10-26T06:19:07.673Z,20.00
2017-10-26T06:21:34.189Z,19.60
2017-10-26T06:24:00.665Z,20.75
2017-10-26T06:26:27.867Z,20.80
2017-10-26T06:28:54.283Z,20.05
2017-10-26T06:31:20.743Z,20.70
2017-10-26T06:33:47.218Z,20.53
2017-10-26T06:36:14.494Z,20.30
2017-10-26T06:38:40.958Z,20.98
2017-10-26T06:41:07.615Z,20.00
2017-10-26T06:43:34.168Z,20.73
2017-10-26T06:46:01.692Z,20.83
2017-10-26T06:48:28.207Z,21.50
2017-10-26T06:50:54.765Z,20.85
2017-10-26T06:53:21.340Z,20.05
2017-10-26T06:55:47.852Z,20.50
2017-10-26T06:58:14.339Z,20.83
2017-10-26T07:00:40.807Z,18.95
2017-10-26T07:03:07.351Z,18.87
2017-10-26T07:05:34.586Z,20.00
2017-10-26T07:08:01.188Z,19.75
2017-10-26T07:10:27.745Z,19.62
2017-10-26T07:12:54.937Z,20.30
2017-10-26T07:15:21.474Z,19.65
2017-10-26T07:17:48.851Z,19.50
2017-10-26T07:20:15.308Z,19.42
2017-10-26T07:22:41.864Z,18.80
2017-10-26T07:25:09.142Z,19.40
2017-10-26T07:27:36.340Z,19.10
2017-10-26T07:30:02.832Z,18.75
2017-10-26T07:32:29.308Z,19.42
2017-10-26T07:34:56.509Z,18.65
2017-10-26T07:37:23.590Z,19.45
2017-10-26T07:39:50.228Z,18.75
2017-10-26T07:42:16.791Z,18.60
2017-10-26T07:44:43.346Z,19.03
2017-10-26T07:47:10.724Z,18.60
2017-10-26T07:49:37.801Z,18.65
2017-10-26T07:52:04.321Z,19.10
2017-10-26T07:54:30.915Z,17.75
2017-10-26T07:56:57.468Z,18.45
2017-10-26T07:59:24.026Z,17.65
2017-10-26T08:01:50.585Z,18.50
2017-10-26T08:04:17.143Z,18.50
2017-10-26T08:06:43.619Z,17.42
2017-10-26T08:09:10.157Z,17.37
2017-10-26T08:11:37.345Z,17.50
2017-10-26T08:14:03.865Z,17.10
2017-10-26T08:16:30.432Z,16.63
2017-10-26T08:18:57.632Z,16.87
2017-10-26T08:21:24.176Z,16.50
2017-10-26T08:23:50.632Z,16.27
2017-10-26T08:26:17.880Z,16.40
2017-10-26T08:28:46.548Z,16.55
2017-10-26T08:31:13.172Z,15.70
2017-10-26T08:33:40.366Z,15.27
2017-10-26T08:36:06.903Z,15.63
2017-10-26T08:38:34.178Z,15.40
2017-10-26T08:41:01.451Z,15.60
2017-10-26T08:43:27.940Z,15.40
2017-10-26T08:45:54.364Z,15.20
2017-10-26T08:48:21.638Z,16.50
2017-10-26T08:50:48.908Z,15.50
2017-10-26T08:53:16.289Z,15.70
2017-10-26T08:55:43.665Z,16.83
2017-10-26T08:58:11.043Z,16.10
2017-10-26T09:00:38.729Z,17.00
2017-10-26T09:03:06.048Z,15.60
2017-10-26T09:05:34.110Z,16.40
2017-10-26T09:08:00.755Z,15.32
2017-10-26T09:10:28.077Z,15.75
2017-10-26T09:12:54.586Z,15.23
2017-10-26T09:15:21.878Z,16.55
2017-10-26T09:17:48.434Z,17.48
2017-10-26T09:20:14.931Z,16.58
2017-10-26T09:22:41.536Z,16.60
2017-10-26T09:25:08.846Z,16.70
2017-10-26T09:27:35.472Z,16.43
2017-10-26T09:30:02.850Z,17.10
2017-10-26T09:32:29.396Z,17.10
2017-10-26T09:34:56.787Z,17.30
2017-10-26T09:37:23.343Z,17.58
2017-10-26T09:39:50.720Z,16.73
2017-10-26T09:42:18.096Z,18.10
2017-10-26T09:44:44.632Z,17.58
2017-10-26T09:47:11.214Z,15.80
2017-10-26T09:49:37.873Z,15.80
2017-10-26T09:52:05.183Z,16.75
2017-10-26T09:54:31.727Z,16.23
2017-10-26T09:56:58.269Z,16.65
2017-10-26T09:59:24.825Z,16.08
2017-10-26T10:01:52.113Z,15.95
2017-10-26T10:04:18.654Z,17.10
2017-10-26T10:06:45.884Z,15.60
2017-10-26T10:09:13.515Z,16.30
2017-10-26T10:11:40.160Z,15.35
2017-10-26T10:14:07.460Z,15.25
2017-10-26T10:16:34.112Z,15.40
2017-10-26T10:19:00.872Z,16.60
2017-10-26T10:21:27.428Z,16.67
2017-10-26T10:23:54.658Z,15.13
2017-10-26T10:26:21.262Z,15.00
2017-10-26T10:28:48.552Z,15.27
2017-10-26T10:31:15.123Z,15.50
2017-10-26T10:33:41.693Z,16.67
2017-10-26T10:36:08.281Z,15.70
2017-10-26T10:38:34.867Z,15.00
2017-10-26T10:41:02.555Z,15.57
2017-10-26T10:43:29.882Z,17.00
2017-10-26T10:45:56.445Z,17.30
2017-10-26T10:48:24.073Z,16.80
2017-10-26T10:50:50.733Z,14.18
2017-10-26T10:53:18.009Z,15.10
2017-10-26T10:55:44.669Z,15.60
2017-10-26T10:58:11.329Z,15.52
2017-10-26T11:00:37.990Z,15.90
2017-10-26T11:03:04.533Z,13.82
2017-10-26T11:05:31.065Z,14.40
2017-10-26T11:07:57.665Z,14.48
2017-10-26T11:10:25.052Z,14.77
2017-10-26T11:12:51.600Z,13.85
2017-10-26T11:15:18.266Z,14.60
2017-10-26T11:17:44.868Z,15.02
2017-10-26T11:20:11.480Z,15.50
2017-10-26T11:22:38.855Z,15.15
2017-10-26T11:25:06.118Z,14.75
2017-10-26T11:27:33.407Z,14.90
2017-10-26T11:30:00.813Z,16.12
2017-10-26T11:32:27.443Z,14.87
2017-10-26T11:34:54.103Z,15.98
2017-10-26T11:37:21.377Z,16.50
2017-10-26T11:39:47.931Z,16.17
2017-10-26T11:42:15.312Z,16.48
2017-10-26T11:44:42.586Z,16.67
2017-10-26T11:47:09.120Z,15.57
2017-10-26T11:49:35.706Z,16.58
2017-10-26T11:52:03.019Z,16.83
2017-10-26T11:54:29.655Z,17.20
2017-10-26T11:56:56.214Z,17.62
2017-10-26T11:59:22.861Z,17.70
2017-10-26T12:01:49.411Z,17.35
2017-10-26T12:04:15.934Z,18.20
2017-10-26T12:06:42.537Z,18.00
2017-10-26T12:09:09.127Z,16.85
2017-10-26T12:11:35.650Z,15.82
2017-10-26T12:14:02.930Z,15.80
2017-10-26T12:16:29.586Z,15.55
2017-10-26T12:18:56.248Z,16.87
2017-10-26T12:21:23.528Z,16.70
2017-10-26T12:23:50.124Z,15.98
2017-10-26T12:26:16.742Z,20.50
2017-10-26T12:28:44.122Z,18.45
2017-10-26T12:31:10.879Z,31.20
2017-10-26T12:33:38.258Z,16.33
2017-10-26T12:36:05.735Z,29.92
2017-10-26T12:38:33.418Z,13.80
2017-10-26T12:41:00.801Z,13.55
2017-10-26T12:43:27.378Z,13.45
2017-10-26T12:45:54.017Z,13.60
2017-10-26T12:48:21.154Z,11.93
2017-10-26T12:50:48.455Z,12.48
2017-10-26T12:53:15.720Z,13.98
2017-10-26T12:55:43.011Z,21.23
2017-10-26T12:58:10.343Z,12.55
2017-10-26T13:00:37.534Z,11.50
2017-10-26T13:03:04.072Z,11.95
2017-10-26T13:05:30.609Z,12.30
2017-10-26T13:07:57.144Z,13.23
2017-10-26T13:10:23.794Z,13.02
2017-10-26T13:12:50.375Z,34.17
2017-10-26T13:15:17.012Z,13.40
2017-10-26T13:17:44.493Z,13.35
2017-10-26T13:20:11.120Z,12.60
2017-10-26T13:22:37.610Z,13.93
2017-10-26T13:25:04.884Z,13.27
2017-10-26T13:27:31.385Z,15.43
2017-10-26T13:29:57.829Z,15.05
2017-10-26T13:32:24.563Z,14.27
2017-10-26T13:34:51.107Z,14.68
2017-10-26T13:37:18.373Z,14.52
2017-10-26T13:39:45.603Z,14.60
2017-10-26T13:42:12.224Z,14.65
2017-10-26T13:44:39.439Z,14.70
2017-10-26T13:47:05.904Z,14.20
2017-10-26T13:49:32.513Z,14.00
2017-10-26T13:51:59.071Z,13.95
2017-10-26T13:54:26.283Z,14.20
2017-10-26T13:56:52.709Z,13.73
2017-10-26T13:59:19.260Z,13.62
2017-10-26T14:01:45.797Z,13.05
2017-10-26T14:04:12.318Z,13.43
2017-10-26T14:06:38.934Z,13.80
2017-10-26T14:09:05.478Z,13.50
2017-10-26T14:11:32.773Z,13.62
2017-10-26T14:13:59.325Z,12.65
2017-10-26T14:16:25.884Z,13.20
2017-10-26T14:18:53.772Z,12.60
2017-10-26T14:21:21.250Z,13.20
2017-10-26T14:23:48.525Z,15.10
2017-10-26T14:26:15.191Z,12.05
2017-10-26T14:28:41.948Z,12.15
2017-10-26T14:31:09.224Z,12.07
2017-10-26T14:33:35.782Z,12.30
2017-10-26T14:36:03.494Z,12.90
2017-10-26T14:38:30.024Z,11.75
2017-10-26T14:40:58.248Z,12.30
2017-10-26T14:43:24.793Z,11.60
2017-10-26T14:45:51.440Z,11.48
2017-10-26T14:48:18.714Z,11.77
2017-10-26T14:50:45.905Z,10.90
2017-10-26T14:53:12.443Z,11.30
2017-10-26T14:55:39.539Z,14.55
2017-10-26T14:58:06.046Z,11.88
2017-10-26T15:00:32.559Z,10.80
2017-10-26T15:02:59.163Z,11.03
2017-10-26T15:05:25.647Z,11.70
2017-10-26T15:07:53.227Z,11.57
2017-10-26T15:10:19.812Z,11.38
2017-10-26T15:12:46.445Z,11.40
2017-10-26T15:15:13.727Z,11.25
2017-10-26T15:17:40.388Z,12.80
2017-10-26T15:20:07.040Z,14.37
2017-10-26T15:22:35.340Z,12.45
2017-10-26T15:25:02.001Z,11.43
2017-10-26T15:27:29.274Z,11.47
2017-10-26T15:29:56.554Z,11.60
2017-10-26T15:32:23.620Z,12.18
2017-10-26T15:34:50.896Z,11.33
2017-10-26T15:37:17.553Z,15.48
2017-10-26T15:39:44.215Z,18.62
2017-10-26T15:42:11.181Z,22.70
2017-10-26T15:44:38.455Z,18.65
2017-10-26T15:47:05.592Z,14.15
2017-10-26T15:49:32.901Z,16.23
2017-10-26T15:51:59.407Z,13.43
2017-10-26T15:54:26.121Z,16.52
2017-10-26T15:56:52.701Z,12.60
2017-10-26T15:59:19.241Z,11.80
2017-10-26T16:01:45.812Z,10.48
2017-10-26T16:04:12.560Z,13.25
2017-10-26T16:06:39.052Z,12.97
2017-10-26T16:09:05.677Z,11.60
2017-10-26T16:11:32.236Z,11.50
2017-10-26T16:13:58.722Z,12.00
2017-10-26T16:16:25.354Z,10.43
2017-10-26T16:18:52.114Z,11.60
2017-10-26T16:21:18.665Z,10.95
2017-10-26T16:23:46.785Z,11.30
2017-10-26T16:26:13.427Z,11.30
2017-10-26T16:28:39.986Z,13.38
2017-10-26T16:31:06.543Z,10.50
2017-10-26T16:33:34.123Z,10.00
2017-10-26T16:36:01.347Z,8.60
2017-10-26T16:38:30.157Z,9.40
2017-10-26T16:40:56.766Z,10.55
2017-10-26T16:43:24.143Z,9.88
2017-10-26T16:45:50.700Z,9.10
2017-10-26T16:48:17.977Z,9.95
2017-10-26T16:50:44.532Z,10.13
2017-10-26T16:53:11.771Z,9.38
2017-10-26T16:55:38.572Z,9.10
2017-10-26T16:58:06.015Z,9.60
2017-10-26T17:00:33.641Z,8.95
2017-10-26T17:03:00.294Z,9.07
2017-10-26T17:05:26.961Z,9.48
2017-10-26T17:07:54.840Z,10.20
2017-10-26T17:10:22.549Z,10.00
2017-10-26T17:12:49.156Z,9.32
2017-10-26T17:15:16.374Z,9.50
2017-10-26T17:17:43.224Z,9.63
2017-10-26T17:20:09.755Z,10.50
2017-10-26T17:22:36.747Z,10.13
2017-10-26T17:25:03.409Z,11.77
2017-10-26T17:27:30.683Z,12.27
2017-10-26T17:29:57.549Z,11.95
2017-10-26T17:32:24.413Z,11.85
2017-10-26T17:34:50.975Z,11.65
2017-10-26T17:37:18.554Z,12.05
2017-10-26T17:39:45.218Z,12.13
2017-10-26T17:42:11.877Z,13.73
2017-10-26T17:44:38.440Z,13.62
2017-10-26T17:47:04.992Z,15.20
2017-10-26T17:49:31.550Z,12.70
2017-10-26T17:51:58.746Z,12.80
2017-10-26T17:54:25.182Z,12.00
2017-10-26T17:56:51.737Z,12.02
2017-10-26T17:59:18.398Z,11.80
2017-10-26T18:01:44.957Z,12.00
2017-10-26T18:04:12.918Z,11.12
2017-10-26T18:06:40.224Z,11.63
2017-10-26T18:09:07.701Z,12.15
2017-10-26T18:11:34.465Z,12.20
2017-10-26T18:14:01.228Z,12.20
2017-10-26T18:16:27.890Z,11.40
2017-10-26T18:18:56.388Z,11.00
2017-10-26T18:21:23.263Z,11.60
2017-10-26T18:23:50.120Z,11.73
2017-10-26T18:26:18.007Z,16.40
2017-10-26T18:28:44.873Z,17.80
2017-10-26T18:31:12.147Z,25.92
2017-10-26T18:33:39.322Z,27.60
2017-10-26T18:36:06.697Z,23.55
2017-10-26T18:38:33.879Z,82.80
2017-10-26T18:41:02.565Z,55.15
2017-10-26T18:43:30.769Z,33.78
2017-10-26T18:45:58.353Z,16.00
2017-10-26T18:48:24.828Z,13.55
2017-10-26T18:50:58.504Z,56.47
2017-10-26T18:53:25.500Z,27.85
2017-10-26T18:55:52.157Z,15.50
2017-10-26T18:58:22.408Z,26.98
2017-10-26T19:00:50.386Z,23.35
2017-10-26T19:03:17.046Z,16.50
2017-10-26T19:05:44.526Z,13.27
2017-10-26T19:08:11.183Z,12.20
2017-10-26T19:10:38.665Z,12.80
2017-10-26T19:13:06.455Z,12.85
2017-10-26T19:15:33.727Z,12.90
2017-10-26T19:18:01.460Z,11.90
2017-10-26T19:20:28.601Z,12.25
2017-10-26T19:22:56.678Z,12.40
2017-10-26T19:25:23.640Z,13.00
2017-10-26T19:27:50.303Z,13.30
2017-10-26T19:30:17.063Z,13.10
2017-10-26T19:32:44.032Z,13.05
2017-10-26T19:35:10.895Z,13.10
2017-10-26T19:37:37.555Z,12.93
2017-10-26T19:40:04.527Z,12.98
2017-10-26T19:42:32.209Z,12.50
2017-10-26T19:44:59.278Z,12.73
2017-10-26T19:47:26.143Z,13.40
2017-10-26T19:49:54.339Z,12.95
2017-10-26T19:52:20.999Z,13.85
2017-10-26T19:54:48.272Z,17.90
2017-10-26T19:57:15.654Z,14.00
2017-10-26T19:59:43.028Z,14.60
2017-10-26T20:02:11.594Z,13.70
2017-10-26T20:04:38.291Z,14.95
2017-10-26T20:07:05.773Z,15.50
2017-10-26T20:09:33.798Z,17.75
2017-10-26T20:12:02.058Z,25.42
2017-10-26T20:14:29.537Z,19.45
2017-10-26T20:16:56.283Z,16.45
2017-10-26T20:19:23.683Z,16.20
2017-10-26T20:21:50.354Z,15.50
2017-10-26T20:24:16.895Z,15.00
2017-10-26T20:26:43.555Z,16.12
2017-10-26T20:29:10.109Z,15.80
2017-10-26T20:31:37.603Z,15.55
2017-10-26T20:34:04.150Z,15.40
2017-10-26T20:36:31.541Z,15.75
2017-10-26T20:38:58.095Z,15.80
2017-10-26T20:41:25.544Z,15.02
2017-10-26T20:43:52.943Z,15.88
2017-10-26T20:46:20.217Z,15.75
2017-10-26T20:48:46.778Z,15.25
2017-10-26T20:51:19.472Z,14.85
2017-10-26T20:53:52.164Z,15.00
2017-10-26T20:56:25.780Z,16.17
2017-10-26T20:58:59.200Z,15.40
2017-10-26T21:01:31.862Z,15.27
2017-10-26T21:04:04.582Z,15.13
2017-10-26T21:06:32.062Z,15.32
2017-10-26T21:09:04.549Z,14.70
2017-10-26T21:11:36.964Z,14.98
2017-10-26T21:14:20.286Z,14.27
2017-10-26T21:16:46.709Z,14.50
2017-10-26T21:19:13.891Z,15.13
2017-10-26T21:21:41.085Z,14.87
2017-10-26T21:24:07.543Z,14.32
2017-10-26T21:26:34.034Z,14.55
2017-10-26T21:29:01.079Z,14.20
2017-10-26T21:31:27.515Z,14.32
2017-10-26T21:33:53.959Z,14.82
2017-10-26T21:36:21.238Z,14.50
2017-10-26T21:38:47.800Z,14.73
2017-10-26T21:41:14.280Z,14.32
2017-10-26T21:43:40.741Z,14.32
2017-10-26T21:46:07.188Z,15.80
2017-10-26T21:48:33.620Z,15.48
2017-10-26T21:51:00.780Z,14.87
2017-10-26T21:53:27.966Z,14.63
2017-10-26T21:55:54.440Z,15.38
2017-10-26T21:58:20.888Z,15.23
2017-10-26T22:00:47.351Z,15.50
2017-10-26T22:03:13.896Z,15.90
2017-10-26T22:05:40.374Z,15.65
2017-10-26T22:08:07.741Z,14.95
2017-10-26T22:10:34.788Z,15.68
2017-10-26T22:13:02.102Z,16.00
2017-10-26T22:15:28.541Z,15.65
2017-10-26T22:17:54.957Z,15.10
2017-10-26T22:20:22.360Z,16.05
2017-10-26T22:22:48.917Z,15.68
2017-10-26T22:25:16.192Z,15.98
2017-10-26T22:27:42.676Z,15.60
2017-10-26T22:30:09.195Z,15.70
2017-10-26T22:32:36.407Z,16.30
2017-10-26T22:35:03.322Z,16.92
2017-10-26T22:37:29.906Z,18.80
2017-10-26T22:39:57.730Z,17.20
2017-10-26T22:42:24.230Z,16.30
2017-10-26T22:44:51.378Z,17.00
2017-10-26T22:47:17.814Z,17.70
2017-10-26T22:49:44.334Z,17.60
2017-10-26T22:52:11.266Z,17.50
2017-10-26T22:54:37.719Z,17.77
2017-10-26T22:57:04.187Z,18.40
2017-10-26T22:59:30.772Z,17.83
2017-10-26T23:01:58.045Z,17.83
2017-10-26T23:04:25.322Z,19.05
2017-10-26T23:06:52.523Z,18.90
2017-10-26T23:09:19.053Z,18.08
2017-10-26T23:11:45.535Z,19.37
2017-10-26T23:14:11.988Z,18.87
2017-10-26T23:16:39.158Z,19.37
2017-10-26T23:19:05.715Z,18.83
2017-10-26T23:21:32.252Z,19.17
2017-10-26T23:23:58.820Z,20.07
2017-10-26T23:26:25.267Z,19.23
2017-10-26T23:28:51.827Z,19.42
2017-10-26T23:31:19.102Z,20.37
2017-10-26T23:33:46.379Z,19.80
2017-10-26T23:36:12.933Z,19.77
2017-10-26T23:38:40.209Z,18.87
2017-10-26T23:41:07.482Z,19.20
2017-10-26T23:43:34.670Z,19.75
2017-10-26T23:46:02.054Z,19.47
2017-10-26T23:48:28.494Z,18.77
2017-10-26T23:50:56.990Z,19.77
2017-10-26T23:53:23.430Z,19.60
2017-10-26T23:55:51.174Z,20.40
2017-10-26T23:58:17.687Z,20.30
